Forside
METAR-TAF:

METAR-TAF

Lufthavne :

Davenport Municipal Airport

Davenport, Iowa, USA

Breddekreds: 41-36-50N, længdekreds: 090-35-29W, højde: 229 m

Aktuelle vejr

Denne rapport blev lavet for 26 minutter siden, kl. 14:52 UTC
Vind 6 kt fra sydøst
Temperatur 17°C
Fugtighed 77%
Tryk 1008 hPa
Sigt: 11.3 km
skyfri

METAR: KDVN 081452Z AUTO 14006KT 7SM CLR 17/13 A2976 RMK AO2 SLP072 T01720133 50002

Tid: 10:18 (15:18 UTC)


TAF: fraværende

Vejrobservationer og prognoser fra mere end 4000 lufthavne (METAR og TAF).

De gule og røde prikker repræsenterer de meteorologiske stationer.

Flyt musen over at se navnet på stationen.

Så klik over at se vejr observationer og prognoser.

At skifte det kort: Klik på de grønne knapper med et sort kors for at zoome ind; på den grønne knap med en bindestreg for at zoome ud; eller på de grønne pile for tilstødende kort.


METAR-TAF: